Volgo-balt 229 — UHZF — position and weather

sailwx.info

Track history (hours):
 
Tides and Currents Weather Stations Pressure Air Temp Water Temp Dewpoint Dewpoint Depression Visibility Wind Speed Wind Dir Waves Ship Positions

Volgo-balt 229

Last reported at 2018-Feb-18 06:10 UTC. Time now 2018-Feb-22 07:18 UTC.
Position N 56°04' E 016°47'.

Length 113 m; draft 2.7 m.

Type: Ship. MMSI: 273336300.

Date/timePositionNaut miles runAvg speedWind from/ knotsBaromVisibWave heightAir tempDewpointWater temp
2018-Feb-18 06:10N 56°04' E 016°47'2 8.6
2018-Feb-18 05:54N 56°02' E 016°44'3 8.5
2018-Feb-18 05:30N 56°01' E 016°39'4 8.6
2018-Feb-18 05:01N 55°59' E 016°32'4 8.7
2018-Feb-18 04:30N 55°56' E 016°25'4 8.6
2018-Feb-18 04:00N 55°54' E 016°18'4 8.6
2018-Feb-18 03:31N 55°52' E 016°12'4 8.6
2018-Feb-18 03:00N 55°50' E 016°05'4 8.6
2018-Feb-18 02:30N 55°48' E 015°58'4 8.6
2018-Feb-18 02:00N 55°46' E 015°52'4 8.6
2018-Feb-18 01:31N 55°44' E 015°45'4 8.8
2018-Feb-18 01:00N 55°41' E 015°39'4 8.9
2018-Feb-18 00:31N 55°39' E 015°31'4 8.8
2018-Feb-18 00:01N 55°37' E 015°25'4 8.8
2018-Feb-17 23:31N 55°35' E 015°18'4 8.7
2018-Feb-17 23:00N 55°33' E 015°11'4 8.7
2018-Feb-17 22:30N 55°31' E 015°04'5 8.5
2018-Feb-17 21:55N 55°28' E 014°57'3 8.5
2018-Feb-17 21:30N 55°27' E 014°51'9 8.4
2018-Feb-17 20:24N 55°22' E 014°38'4 8.5
2018-Feb-17 19:55N 55°18' E 014°33'4 8.5
2018-Feb-17 19:29N 55°16' E 014°29'7 8.5
2018-Feb-17 18:40N 55°11' E 014°19'1 8.0
2018-Feb-17 18:30N 55°11' E 014°17'43 8.8
2018-Feb-17 13:36N 55°13' E 013°01'1 8.9
2018-Feb-17 13:29N 55°13' E 012°60'4 8.8
2018-Feb-17 13:00N 55°15' E 012°53'5 8.8
2018-Feb-17 12:28N 55°16' E 012°45'4 8.8
2018-Feb-17 12:00N 55°18' E 012°39'4 8.5
2018-Feb-17 11:30N 55°22' E 012°39'4 8.9
2018-Feb-17 11:00N 55°27' E 012°41'5 9.2
2018-Feb-17 10:30N 55°31' E 012°42'5 9.6
2018-Feb-17 10:00N 55°36' E 012°42'5 9.6
2018-Feb-17 09:30N 55°41' E 012°41'5 9.1
2018-Feb-17 09:00N 55°45' E 012°41'5 9.1
2018-Feb-17 08:30N 55°50' E 012°40'5 9.1
2018-Feb-17 08:00N 55°54' E 012°38'5 9.4
2018-Feb-17 07:30N 55°59' E 012°38'4 8.4
2018-Feb-17 07:00N 56°03' E 012°38'510.1
2018-Feb-17 06:30N 56°07' E 012°31'5 9.7
2018-Feb-17 06:00N 56°09' E 012°24'  
2018-Feb-14 23:10N 56°09' E 012°10'1 8.3
2018-Feb-14 23:00N 56°09' E 012°12'4 8.6
2018-Feb-14 22:29N 56°10' E 012°21'5 9.7
2018-Feb-14 22:00N 56°10' E 012°29'510.4
2018-Feb-14 21:30N 56°06' E 012°35'5 9.9
2018-Feb-14 21:00N 56°02' E 012°41'4 8.9
2018-Feb-14 20:30N 55°58' E 012°43'4 8.8
2018-Feb-14 20:00N 55°53' E 012°44'5 9.0
2018-Feb-14 19:30N 55°49' E 012°43'5 9.9
2018-Feb-14 19:00N 55°44' E 012°41'510.0
2018-Feb-14 18:30N 55°39' E 012°42'5 9.6
2018-Feb-14 18:00N 55°34' E 012°42'5 9.0
2018-Feb-14 17:30N 55°30' E 012°43'4 8.9
2018-Feb-14 17:00N 55°25' E 012°42'4 8.8
2018-Feb-14 16:30N 55°21' E 012°41'7 7.5
2018-Feb-14 15:36N 55°17' E 012°51'1 8.3
2018-Feb-14 15:28N 55°16' E 012°53'35 8.3
2018-Feb-14 11:19N 55°14' E 013°53'13 8.2
2018-Feb-14 09:45N 55°14' E 014°16'4 7.9
2018-Feb-14 09:17N 55°17' E 014°20'2 7.9
2018-Feb-14 08:59N 55°19' E 014°22'7 8.1
2018-Feb-14 08:06N 55°24' E 014°30'1 8.3
2018-Feb-14 07:56N 55°25' E 014°31'10 8.1
2018-Feb-14 06:44N 55°31' E 014°46'2 8.2
2018-Feb-14 06:30N 55°32' E 014°49'5 8.3
2018-Feb-14 05:57N 55°34' E 014°56'5 8.3
2018-Feb-14 05:19N 55°36' E 015°04'3 8.1
2018-Feb-14 04:58N 55°38' E 015°08'4 8.0
2018-Feb-14 04:30N 55°39' E 015°14'4 7.9
2018-Feb-14 04:00N 55°40' E 015°21'4 7.7
2018-Feb-14 03:30N 55°41' E 015°28'4 7.7
2018-Feb-14 03:00N 55°42' E 015°34'4 7.7
2018-Feb-14 02:30N 55°43' E 015°41'4 7.6
2018-Feb-14 02:00N 55°44' E 015°48'4 7.6
2018-Feb-14 01:30N 55°45' E 015°54'4 7.6
2018-Feb-14 01:00N 55°46' E 016°01'4 7.8
2018-Feb-14 00:30N 55°47' E 016°07'4 7.7
2018-Feb-13 23:58N 55°48' E 016°15'4 7.8
2018-Feb-13 23:30N 55°49' E 016°21'  
2018-Feb-08 22:30N 56°01' E 016°39'4 8.5
2018-Feb-08 22:00N 55°59' E 016°32'4 8.4
2018-Feb-08 21:30N 55°57' E 016°26'4 8.2
2018-Feb-08 21:00N 55°55' E 016°19'4 8.3
2018-Feb-08 20:30N 55°52' E 016°13'8 8.4
2018-Feb-08 19:30N 55°48' E 015°60'4 8.5
2018-Feb-08 19:00N 55°46' E 015°53'4 8.4
2018-Feb-08 18:30N 55°44' E 015°47'4 8.5
2018-Feb-08 18:00N 55°42' E 015°41'4 8.6
2018-Feb-08 17:30N 55°39' E 015°34'4 8.6
2018-Feb-08 17:00N 55°38' E 015°27'4 8.6
2018-Feb-08 16:30N 55°36' E 015°20'4 8.6
2018-Feb-08 16:00N 55°34' E 015°14'30 8.5
2018-Feb-08 12:30N 55°16' E 014°31'  
Track history (hours):
 
Tides and Currents Weather Stations Pressure Air Temp Water Temp Dewpoint Dewpoint Depression Visibility Wind Speed Wind Dir Waves Ship Positions

Volgo-balt 229

Last reported at 2018-Feb-18 06:10 UTC. Time now 2018-Feb-22 07:18 UTC.
Position N 56°04' E 016°47'.

Length 113 m; draft 2.7 m.

Type: Ship. MMSI: 273336300.

Date/timePositionNaut miles runAvg speedWind from/ knotsBaromVisibWave heightAir tempDewpointWater temp
2018-Feb-18 06:10N 56°04' E 016°47'2 8.6
2018-Feb-18 05:54N 56°02' E 016°44'3 8.5
2018-Feb-18 05:30N 56°01' E 016°39'4 8.6
2018-Feb-18 05:01N 55°59' E 016°32'4 8.7
2018-Feb-18 04:30N 55°56' E 016°25'4 8.6
2018-Feb-18 04:00N 55°54' E 016°18'4 8.6
2018-Feb-18 03:31N 55°52' E 016°12'4 8.6
2018-Feb-18 03:00N 55°50' E 016°05'4 8.6
2018-Feb-18 02:30N 55°48' E 015°58'4 8.6
2018-Feb-18 02:00N 55°46' E 015°52'4 8.6
2018-Feb-18 01:31N 55°44' E 015°45'4 8.8
2018-Feb-18 01:00N 55°41' E 015°39'4 8.9
2018-Feb-18 00:31N 55°39' E 015°31'4 8.8
2018-Feb-18 00:01N 55°37' E 015°25'4 8.8
2018-Feb-17 23:31N 55°35' E 015°18'4 8.7
2018-Feb-17 23:00N 55°33' E 015°11'4 8.7
2018-Feb-17 22:30N 55°31' E 015°04'5 8.5
2018-Feb-17 21:55N 55°28' E 014°57'3 8.5
2018-Feb-17 21:30N 55°27' E 014°51'9 8.4
2018-Feb-17 20:24N 55°22' E 014°38'4 8.5
2018-Feb-17 19:55N 55°18' E 014°33'4 8.5
2018-Feb-17 19:29N 55°16' E 014°29'7 8.5
2018-Feb-17 18:40N 55°11' E 014°19'1 8.0
2018-Feb-17 18:30N 55°11' E 014°17'43 8.8
2018-Feb-17 13:36N 55°13' E 013°01'1 8.9
2018-Feb-17 13:29N 55°13' E 012°60'4 8.8
2018-Feb-17 13:00N 55°15' E 012°53'5 8.8
2018-Feb-17 12:28N 55°16' E 012°45'4 8.8
2018-Feb-17 12:00N 55°18' E 012°39'4 8.5
2018-Feb-17 11:30N 55°22' E 012°39'4 8.9
2018-Feb-17 11:00N 55°27' E 012°41'5 9.2
2018-Feb-17 10:30N 55°31' E 012°42'5 9.6
2018-Feb-17 10:00N 55°36' E 012°42'5 9.6
2018-Feb-17 09:30N 55°41' E 012°41'5 9.1
2018-Feb-17 09:00N 55°45' E 012°41'5 9.1
2018-Feb-17 08:30N 55°50' E 012°40'5 9.1
2018-Feb-17 08:00N 55°54' E 012°38'5 9.4
2018-Feb-17 07:30N 55°59' E 012°38'4 8.4
2018-Feb-17 07:00N 56°03' E 012°38'510.1
2018-Feb-17 06:30N 56°07' E 012°31'5 9.7
2018-Feb-17 06:00N 56°09' E 012°24'  
2018-Feb-14 23:10N 56°09' E 012°10'1 8.3
2018-Feb-14 23:00N 56°09' E 012°12'4 8.6
2018-Feb-14 22:29N 56°10' E 012°21'5 9.7
2018-Feb-14 22:00N 56°10' E 012°29'510.4
2018-Feb-14 21:30N 56°06' E 012°35'5 9.9
2018-Feb-14 21:00N 56°02' E 012°41'4 8.9
2018-Feb-14 20:30N 55°58' E 012°43'4 8.8
2018-Feb-14 20:00N 55°53' E 012°44'5 9.0
2018-Feb-14 19:30N 55°49' E 012°43'5 9.9
2018-Feb-14 19:00N 55°44' E 012°41'510.0
2018-Feb-14 18:30N 55°39' E 012°42'5 9.6
2018-Feb-14 18:00N 55°34' E 012°42'5 9.0
2018-Feb-14 17:30N 55°30' E 012°43'4 8.9
2018-Feb-14 17:00N 55°25' E 012°42'4 8.8
2018-Feb-14 16:30N 55°21' E 012°41'7 7.5
2018-Feb-14 15:36N 55°17' E 012°51'1 8.3
2018-Feb-14 15:28N 55°16' E 012°53'35 8.3
2018-Feb-14 11:19N 55°14' E 013°53'13 8.2
2018-Feb-14 09:45N 55°14' E 014°16'4 7.9
2018-Feb-14 09:17N 55°17' E 014°20'2 7.9
2018-Feb-14 08:59N 55°19' E 014°22'7 8.1
2018-Feb-14 08:06N 55°24' E 014°30'1 8.3
2018-Feb-14 07:56N 55°25' E 014°31'10 8.1
2018-Feb-14 06:44N 55°31' E 014°46'2 8.2
2018-Feb-14 06:30N 55°32' E 014°49'5 8.3
2018-Feb-14 05:57N 55°34' E 014°56'5 8.3
2018-Feb-14 05:19N 55°36' E 015°04'3 8.1
2018-Feb-14 04:58N 55°38' E 015°08'4 8.0
2018-Feb-14 04:30N 55°39' E 015°14'4 7.9
2018-Feb-14 04:00N 55°40' E 015°21'4 7.7
2018-Feb-14 03:30N 55°41' E 015°28'4 7.7
2018-Feb-14 03:00N 55°42' E 015°34'4 7.7
2018-Feb-14 02:30N 55°43' E 015°41'4 7.6
2018-Feb-14 02:00N 55°44' E 015°48'4 7.6
2018-Feb-14 01:30N 55°45' E 015°54'4 7.6
2018-Feb-14 01:00N 55°46' E 016°01'4 7.8
2018-Feb-14 00:30N 55°47' E 016°07'4 7.7
2018-Feb-13 23:58N 55°48' E 016°15'4 7.8
2018-Feb-13 23:30N 55°49' E 016°21'  
2018-Feb-08 22:30N 56°01' E 016°39'4 8.5
2018-Feb-08 22:00N 55°59' E 016°32'4 8.4
2018-Feb-08 21:30N 55°57' E 016°26'4 8.2
2018-Feb-08 21:00N 55°55' E 016°19'4 8.3
2018-Feb-08 20:30N 55°52' E 016°13'8 8.4
2018-Feb-08 19:30N 55°48' E 015°60'4 8.5
2018-Feb-08 19:00N 55°46' E 015°53'4 8.4
2018-Feb-08 18:30N 55°44' E 015°47'4 8.5
2018-Feb-08 18:00N 55°42' E 015°41'4 8.6
2018-Feb-08 17:30N 55°39' E 015°34'4 8.6
2018-Feb-08 17:00N 55°38' E 015°27'4 8.6
2018-Feb-08 16:30N 55°36' E 015°20'4 8.6
2018-Feb-08 16:00N 55°34' E 015°14'30 8.5
2018-Feb-08 12:30N 55°16' E 014°31'  

Dump ship's entire track history